createdAt,value
2023-03-06T00:02:01.636Z,1
2023-03-06T00:12:01.707Z,1
2023-03-06T00:22:01.650Z,1
2023-03-06T00:32:03.348Z,1
2023-03-06T00:42:01.631Z,1
2023-03-06T00:52:01.702Z,1
2023-03-06T01:02:01.661Z,1
2023-03-06T01:12:01.702Z,1
2023-03-06T01:22:01.616Z,1
2023-03-06T01:32:01.795Z,1
2023-03-06T01:42:01.831Z,1
2023-03-06T01:52:01.685Z,1
2023-03-06T02:02:01.925Z,1
2023-03-06T02:12:01.684Z,1
2023-03-06T02:22:01.810Z,1
2023-03-06T02:32:01.748Z,1
2023-03-06T02:42:01.809Z,1
2023-03-06T02:52:01.678Z,1
2023-03-06T03:02:01.782Z,1
2023-03-06T03:12:01.868Z,1
2023-03-06T03:22:01.787Z,1
2023-03-06T03:32:01.906Z,1
2023-03-06T03:42:01.784Z,1
2023-03-06T03:52:01.870Z,1
2023-03-06T04:02:01.829Z,1
2023-03-06T04:12:01.839Z,1
2023-03-06T04:22:01.973Z,1
2023-03-06T04:32:01.866Z,1
2023-03-06T04:42:01.982Z,1
2023-03-06T04:52:01.874Z,1
2023-03-06T05:02:01.996Z,1
2023-03-06T05:12:01.868Z,1
2023-03-06T05:22:02.000Z,1
2023-03-06T05:32:01.955Z,1
2023-03-06T05:42:01.980Z,1
2023-03-06T05:52:01.861Z,1
2023-03-06T06:02:01.988Z,1
2023-03-06T06:12:02.046Z,1
2023-03-06T06:22:01.975Z,2
2023-03-06T06:32:02.097Z,10
2023-03-06T06:42:21.045Z,27
2023-03-06T06:52:02.032Z,47
2023-03-06T07:02:01.980Z,67
2023-03-06T07:12:02.058Z,73
2023-03-06T07:22:01.979Z,78
2023-03-06T07:32:02.277Z,79
2023-03-06T07:42:02.176Z,80
2023-03-06T07:52:02.046Z,83
2023-03-06T08:02:02.213Z,84
2023-03-06T08:12:02.058Z,84
2023-03-06T08:22:02.171Z,85
2023-03-06T08:32:02.135Z,89
2023-03-06T08:42:02.243Z,88
2023-03-06T08:52:02.038Z,91
2023-03-06T09:02:02.232Z,94
2023-03-06T09:12:02.242Z,89
2023-03-06T09:22:02.165Z,93
2023-03-06T09:32:02.289Z,95
2023-03-06T09:42:02.189Z,94
2023-03-06T09:52:02.408Z,90
2023-03-06T10:02:02.380Z,96
2023-03-06T10:12:02.164Z,96
2023-03-06T10:22:02.345Z,96
2023-03-06T10:32:02.391Z,96
2023-03-06T10:42:02.270Z,96
2023-03-06T10:52:02.372Z,96
2023-03-06T11:02:02.362Z,96
2023-03-06T11:12:02.325Z,97
2023-03-06T11:22:02.240Z,97
2023-03-06T11:32:02.361Z,97
2023-03-06T11:42:02.264Z,97
2023-03-06T11:52:02.327Z,97
2023-03-06T12:02:02.510Z,97
2023-03-06T12:12:02.303Z,97
2023-03-06T12:22:02.450Z,97
2023-03-06T12:32:02.434Z,95
2023-03-06T12:42:02.533Z,96
2023-03-06T12:52:02.313Z,96
2023-03-06T13:02:02.476Z,96
2023-03-06T13:12:02.359Z,96
2023-03-06T13:22:02.512Z,93
2023-03-06T13:32:02.464Z,91
2023-03-06T13:42:02.456Z,92
2023-03-06T13:52:02.538Z,93
2023-03-06T14:02:02.547Z,93
2023-03-06T14:12:02.470Z,95
2023-03-06T14:22:02.569Z,94
2023-03-06T14:32:02.393Z,94
2023-03-06T14:42:02.541Z,95
2023-03-06T14:52:02.592Z,95
2023-03-06T15:02:02.598Z,95
2023-03-06T15:12:02.584Z,95
2023-03-06T15:22:02.508Z,95
2023-03-06T15:32:02.685Z,95
2023-03-06T15:42:04.001Z,95
2023-03-06T15:52:02.523Z,95
2023-03-06T16:02:02.659Z,95
2023-03-06T16:12:02.564Z,95
2023-03-06T16:22:02.658Z,94
2023-03-06T16:32:02.687Z,92
2023-03-06T16:42:02.684Z,92
2023-03-06T16:52:02.516Z,90
2023-03-06T17:02:02.633Z,89
2023-03-06T17:12:02.697Z,86
2023-03-06T17:22:02.626Z,83
2023-03-06T17:32:02.750Z,77
2023-03-06T17:42:02.617Z,69
2023-03-06T17:52:02.697Z,54
2023-03-06T18:02:02.728Z,37
2023-03-06T18:12:02.687Z,19
2023-03-06T18:22:02.648Z,6
2023-03-06T18:32:02.811Z,2
2023-03-06T18:42:02.805Z,1
2023-03-06T18:52:02.727Z,1
2023-03-06T19:02:02.807Z,1
2023-03-06T19:12:02.685Z,1
2023-03-06T19:22:02.715Z,1
2023-03-06T19:32:02.943Z,1
2023-03-06T19:42:02.712Z,1
2023-03-06T19:52:02.790Z,1
2023-03-06T20:02:03.052Z,1
2023-03-06T20:12:03.039Z,1
2023-03-06T20:22:02.916Z,1
2023-03-06T20:32:02.872Z,1
2023-03-06T20:42:02.905Z,1
2023-03-06T20:52:02.777Z,1
2023-03-06T21:02:02.986Z,1
2023-03-06T21:12:03.856Z,1
2023-03-06T21:22:02.947Z,1
2023-03-06T21:32:02.875Z,1
2023-03-06T21:42:03.063Z,1
2023-03-06T21:52:02.814Z,1
2023-03-06T22:02:03.004Z,1
2023-03-06T22:12:03.005Z,1
2023-03-06T22:22:03.075Z,1
2023-03-06T22:32:03.127Z,1
2023-03-06T22:42:02.930Z,1
2023-03-06T22:52:02.995Z,1
2023-03-06T23:02:03.675Z,1
2023-03-06T23:12:03.051Z,1
2023-03-06T23:22:03.149Z,1
2023-03-06T23:32:03.091Z,1
2023-03-06T23:42:03.214Z,1
2023-03-06T23:52:03.091Z,1
